Kearsarge, NH (03847)

1:29 PM EDT on May 23, 2017 (GMT -0400)
Pine Street, North Conway, NH | | Change Station

Elev 534 ft 44.06 °N, 71.13 °W | Updated 7 seconds ago

Partly Cloudy
Partly Cloudy
69.1 °F
Feels Like 69.1 °F
N
3.5
Wind Variable Wind from South
Gusts 8.0 mph

Today
High -- | Low -- °F
--% Chance of Precip.
Yesterday
High -- | Low -- °F
Precip. -- in
Pressure 29.86 in
Visibility 10.0 miles
Clouds Few 4500 ft
Dew Point 52 °F
Humidity 55%
Rainfall 0.00 in
Snow Depth Not available.
5:10 AM 8:12 PM
Waning Crescent, 7% visible
METAR KIZG 231654Z AUTO VRB03KT 10SM FEW045 19/08 A2986 RMK AO2 SLP112 T01940083
Pressure 29.86 in
Visibility 10.0 miles
Clouds Few 4500 ft
Dew Point 52 °F
Humidity 55%
Rainfall 0.00 in
Snow Depth Not available.
5:10 AM 8:12 PM
Waning Crescent, 7% visible
METAR KIZG 231654Z AUTO VRB03KT 10SM FEW045 19/08 A2986 RMK AO2 SLP112 T01940083

Get Severe Weather Alerts

Thanks for signing up!

Be on the lookout for a verification email in your inbox.

You'll start receiving the daily forecast at 6 AM.

×

10-Day Weather Forecast

Almanac

Astronomy

May. 23, 2017 Rise Set
Actual Time
Civil Twilight
Nautical Twilight
Astronomical Twilight
Moon
Length of Visible Light
Length of Day
Tomorrow will be .
, % of the Moon is Illuminated

Today's Extremes

State Highs State Lows

Community

WunderPhotos

Category 6

Welcome to Category 6. This is the collective home for Weather Underground's featured writeups by Dr. Jeff Masters (right), Bob Henson (left), Chris Burt, and other regular contributors.

Nearby

Air Quality

  Air Quality AQ Index Pollutant
Not available.

Snow Depth

Station Depth Elevation

Earthquake Activity

City Distance Mag. Time & Date
Minimum magnitude displayed is 2.5.

Coastal Water Temperatures

Place Temperature

Stations

Nearby Weather Stations

Station Location Temp. Windchill Dew Point Humidity Wind Precip. Elev Updated Type
                   

Watches & Warnings

There are currently no watches in effect.